Portada
METAR-TAF:

METAR-TAF

Aeroports :

Mount Gambier, Austràlia

latitud: 37-44-44S, longitud: 140-47-07E, altitud: 65 m

Observació

L'informe es va fer fa 13 minuts, a les 15:12 UTC
Vent 23 kt del Sud amb ràfegues de 33 kt
Temperatura 15°C
Humitat 94%
Pressió 1000 hPa
Visibilitat: 5000 m
Cel cobert a una alçada de 600 ft
pluja

METAR: YMTG 131512Z AUTO 17023G33KT 5000 -RA OVC006 15/14 Q1000 RERA

Hora: 01:55 (15:25 UTC)


TAF: manca

Observacions i pronòstics meteorològics de més de 4000 aeroports (METAR i TAF).

Les estacions disponibles són els punts grocs i vermells al mapa.

Posi el ratolí al punt desitjat per veure el nom de l'estació.

Feu clic per veure les observacions i els pronòstics meteorològics.

Per canviar el mapa: feu clic els botons verds amb una creu de color negre per apropar; al botó verd amb un guió per allunyar la imatge; o en les fletxes verdes per a mapes adjacents.


METAR-TAF: